createdAt,value
2018-07-24T00:02:21.094Z,76.32
2018-07-24T00:04:50.447Z,75.98
2018-07-24T00:07:19.814Z,76.46
2018-07-24T00:09:49.422Z,76.43
2018-07-24T00:12:19.022Z,76.15
2018-07-24T00:14:48.350Z,76.67
2018-07-24T00:17:17.405Z,76.78
2018-07-24T00:19:46.795Z,76.59
2018-07-24T00:22:16.158Z,76.29
2018-07-24T00:24:45.603Z,76.52
2018-07-24T00:27:14.974Z,77.61
2018-07-24T00:29:44.382Z,77.34
2018-07-24T00:32:13.805Z,76.80
2018-07-24T00:34:43.126Z,77.59
2018-07-24T00:37:12.481Z,77.92
2018-07-24T00:39:41.846Z,78.04
2018-07-24T00:42:11.217Z,77.42
2018-07-24T00:44:40.580Z,78.58
2018-07-24T00:47:10.237Z,78.86
2018-07-24T00:49:40.440Z,78.98
2018-07-24T00:52:10.137Z,78.07
2018-07-24T00:54:39.462Z,78.78
2018-07-24T00:57:08.837Z,77.84
2018-07-24T00:59:37.987Z,77.78
2018-07-24T01:02:07.396Z,78.14
2018-07-24T01:04:36.760Z,78.21
2018-07-24T01:07:06.453Z,78.04
2018-07-24T01:09:35.516Z,79.38
2018-07-24T01:12:04.876Z,79.13
2018-07-24T01:14:34.279Z,79.21
2018-07-24T01:17:03.598Z,78.26
2018-07-24T01:19:32.940Z,79.15
2018-07-24T01:22:02.406Z,78.96
2018-07-24T01:24:31.753Z,78.83
2018-07-24T01:27:01.285Z,79.19
2018-07-24T01:29:30.654Z,79.35
2018-07-24T01:32:00.028Z,79.20
2018-07-24T01:34:29.416Z,81.02
2018-07-24T01:36:58.763Z,81.81
2018-07-24T01:39:28.117Z,81.91
2018-07-24T01:41:57.468Z,81.74
2018-07-24T01:44:26.804Z,82.19
2018-07-24T01:46:56.197Z,80.70
2018-07-24T01:49:25.588Z,80.51
2018-07-24T01:51:54.886Z,80.61
2018-07-24T01:54:24.255Z,81.45
2018-07-24T01:56:53.694Z,81.87
2018-07-24T01:59:23.013Z,83.36
2018-07-24T02:01:52.095Z,83.57
2018-07-24T02:04:21.426Z,83.15
2018-07-24T02:06:50.810Z,83.26
2018-07-24T02:09:20.169Z,83.40
2018-07-24T02:11:49.533Z,83.69
2018-07-24T02:14:18.862Z,83.51
2018-07-24T02:16:48.307Z,83.22
2018-07-24T02:19:17.670Z,83.29
2018-07-24T02:21:47.039Z,81.73
2018-07-24T02:24:16.120Z,82.06
2018-07-24T02:26:45.834Z,82.66
2018-07-24T02:29:15.161Z,81.90
2018-07-24T02:31:44.516Z,83.49
2018-07-24T02:34:14.009Z,83.21
2018-07-24T02:36:43.338Z,83.49
2018-07-24T02:39:14.399Z,84.26
2018-07-24T02:41:43.486Z,82.87
2018-07-24T02:44:12.870Z,83.08
2018-07-24T02:46:42.202Z,82.66
2018-07-24T02:49:11.591Z,83.72
2018-07-24T02:51:40.949Z,83.50
2018-07-24T02:54:10.350Z,82.89
2018-07-24T02:56:39.695Z,82.75
2018-07-24T02:59:09.022Z,82.58
2018-07-24T03:01:39.375Z,82.76
2018-07-24T03:04:09.695Z,83.11
2018-07-24T03:06:39.061Z,83.48
2018-07-24T03:09:10.466Z,82.72
2018-07-24T03:11:39.972Z,83.37
2018-07-24T03:14:09.478Z,83.10
2018-07-24T03:16:38.850Z,82.88
2018-07-24T03:19:08.338Z,83.26
2018-07-24T03:21:37.794Z,84.81
2018-07-24T03:24:07.192Z,85.64
2018-07-24T03:26:36.565Z,84.79
2018-07-24T03:29:05.627Z,85.54
2018-07-24T03:31:34.927Z,85.21
2018-07-24T03:34:04.559Z,85.39
2018-07-24T03:36:33.874Z,85.24
2018-07-24T03:39:03.289Z,84.79
2018-07-24T03:41:32.626Z,85.23
2018-07-24T03:44:01.974Z,85.07
2018-07-24T03:46:31.282Z,84.66
2018-07-24T03:49:00.414Z,85.11
2018-07-24T03:51:29.788Z,85.16
2018-07-24T03:53:59.182Z,84.73
2018-07-24T03:56:28.297Z,84.80
2018-07-24T03:58:57.891Z,85.88
2018-07-24T04:01:27.085Z,86.63
2018-07-24T04:03:56.695Z,86.94
2018-07-24T04:06:26.197Z,87.50
2018-07-24T04:08:55.546Z,87.75
2018-07-24T04:11:24.933Z,87.38
2018-07-24T04:13:54.357Z,87.10
2018-07-24T04:16:23.754Z,87.54
2018-07-24T04:18:53.117Z,88.06
2018-07-24T04:21:22.499Z,87.13
2018-07-24T04:23:51.813Z,87.70
2018-07-24T04:26:21.301Z,87.82
2018-07-24T04:28:50.714Z,87.60
2018-07-24T04:31:20.518Z,87.21
2018-07-24T04:33:49.862Z,87.63
2018-07-24T04:36:19.193Z,87.70
2018-07-24T04:38:48.605Z,87.49
2018-07-24T04:41:18.014Z,86.64
2018-07-24T04:43:47.660Z,86.33
2018-07-24T04:46:17.015Z,86.16
2018-07-24T04:48:46.418Z,85.58
2018-07-24T04:51:15.854Z,84.86
2018-07-24T04:53:45.355Z,85.07
2018-07-24T04:56:14.721Z,84.36
2018-07-24T04:58:44.169Z,85.01
2018-07-24T05:01:13.682Z,84.46
2018-07-24T05:03:43.035Z,84.12
2018-07-24T05:06:12.378Z,84.67
2018-07-24T05:08:41.717Z,84.89
2018-07-24T05:11:11.029Z,83.98
2018-07-24T05:13:40.618Z,81.89
2018-07-24T05:16:09.957Z,80.73
2018-07-24T05:18:39.492Z,79.43
2018-07-24T05:21:09.045Z,77.72
2018-07-24T05:23:38.491Z,77.29
2018-07-24T05:26:07.746Z,75.56
2018-07-24T05:28:37.113Z,75.30
2018-07-24T05:31:06.458Z,74.71
2018-07-24T05:33:35.936Z,73.97
2018-07-24T05:36:05.474Z,73.76
2018-07-24T05:38:34.853Z,73.57
2018-07-24T05:41:04.249Z,72.54
2018-07-24T05:43:33.674Z,72.13
2018-07-24T05:46:02.999Z,71.39
2018-07-24T05:48:33.462Z,71.03
2018-07-24T05:51:02.769Z,70.44
2018-07-24T05:53:32.184Z,69.69
2018-07-24T05:56:01.661Z,69.13
2018-07-24T05:58:31.187Z,67.96
2018-07-24T06:01:00.598Z,67.72
2018-07-24T06:03:30.125Z,67.53
2018-07-24T06:05:59.605Z,66.85
2018-07-24T06:08:29.849Z,65.97
2018-07-24T06:10:59.194Z,66.52
2018-07-24T06:13:28.626Z,65.23
2018-07-24T06:15:58.313Z,64.75
2018-07-24T06:18:27.757Z,65.22
2018-07-24T06:20:57.272Z,65.60
2018-07-24T06:23:26.673Z,64.68
2018-07-24T06:25:56.048Z,65.01
2018-07-24T06:28:25.501Z,63.07
2018-07-24T06:30:55.017Z,63.38
2018-07-24T06:33:24.385Z,62.86
2018-07-24T06:35:53.908Z,62.94
2018-07-24T06:38:23.641Z,63.05
2018-07-24T06:40:53.097Z,62.63
2018-07-24T06:43:22.497Z,62.22
2018-07-24T06:45:51.846Z,62.23
2018-07-24T06:48:21.241Z,60.80
2018-07-24T06:50:50.579Z,61.75
2018-07-24T06:53:20.075Z,60.93
2018-07-24T06:55:49.441Z,60.46
2018-07-24T06:58:18.853Z,60.07
2018-07-24T07:00:48.286Z,60.13
2018-07-24T07:03:17.745Z,58.96
2018-07-24T07:05:47.142Z,59.25
2018-07-24T07:08:16.550Z,58.25
2018-07-24T07:10:46.033Z,57.81
2018-07-24T07:13:15.496Z,57.94
2018-07-24T07:15:45.002Z,57.59
2018-07-24T07:18:14.336Z,57.03
2018-07-24T07:20:43.814Z,57.43
2018-07-24T07:23:13.319Z,57.25
2018-07-24T07:25:42.398Z,56.81
2018-07-24T07:28:11.752Z,57.27
2018-07-24T07:30:41.182Z,57.32
2018-07-24T07:33:10.521Z,57.00
2018-07-24T07:35:39.970Z,56.84
2018-07-24T07:38:09.492Z,57.10
2018-07-24T07:40:38.892Z,57.08
2018-07-24T07:43:08.321Z,57.20
2018-07-24T07:45:37.717Z,56.56
2018-07-24T07:48:07.248Z,56.36
2018-07-24T07:50:36.654Z,56.41
2018-07-24T07:53:06.030Z,56.45
2018-07-24T07:55:35.478Z,55.21
2018-07-24T07:58:04.854Z,54.58
2018-07-24T08:00:34.209Z,53.41
2018-07-24T08:03:03.669Z,53.35
2018-07-24T08:05:33.127Z,53.98
2018-07-24T08:08:02.570Z,53.74
2018-07-24T08:10:31.957Z,53.12
2018-07-24T08:13:01.383Z,54.51
2018-07-24T08:15:30.804Z,53.22
2018-07-24T08:18:00.221Z,53.69
2018-07-24T08:20:29.697Z,53.09
2018-07-24T08:22:59.097Z,53.51
2018-07-24T08:25:28.610Z,54.36
2018-07-24T08:27:58.006Z,53.16
2018-07-24T08:30:27.499Z,53.26
2018-07-24T08:32:57.049Z,52.59
2018-07-24T08:35:26.476Z,51.77
2018-07-24T08:37:55.906Z,52.26
2018-07-24T08:40:25.932Z,51.43
2018-07-24T08:42:55.326Z,52.02
2018-07-24T08:45:24.633Z,51.68
2018-07-24T08:47:54.062Z,51.57
2018-07-24T08:50:23.466Z,50.72
2018-07-24T08:52:52.971Z,51.36
2018-07-24T08:55:22.974Z,51.15
2018-07-24T08:57:51.989Z,50.78
2018-07-24T09:00:21.306Z,51.05
2018-07-24T09:02:50.370Z,50.49
2018-07-24T09:05:19.893Z,51.98
2018-07-24T09:07:49.242Z,50.85
2018-07-24T09:10:19.428Z,52.07
2018-07-24T09:12:48.916Z,50.25
2018-07-24T09:15:19.344Z,50.85
2018-07-24T09:17:48.733Z,50.04
2018-07-24T09:20:18.109Z,50.09
2018-07-24T09:22:47.457Z,50.57
2018-07-24T09:25:16.917Z,50.53
2018-07-24T09:27:46.889Z,50.11
2018-07-24T09:30:17.301Z,49.74
2018-07-24T09:32:47.946Z,51.62
2018-07-24T09:35:17.321Z,49.73
2018-07-24T09:37:47.119Z,49.01
2018-07-24T09:40:16.969Z,48.71
2018-07-24T09:42:47.337Z,49.20
2018-07-24T09:45:17.705Z,49.53
2018-07-24T09:47:47.086Z,48.96
2018-07-24T09:50:16.658Z,47.95
2018-07-24T09:52:47.332Z,47.86
2018-07-24T09:55:16.752Z,48.10
2018-07-24T09:57:46.607Z,48.19
2018-07-24T10:00:16.050Z,48.13
2018-07-24T10:02:45.494Z,47.94
2018-07-24T10:05:14.833Z,47.93
2018-07-24T10:07:44.170Z,49.17
2018-07-24T10:10:13.606Z,50.36
2018-07-24T10:12:43.047Z,47.62
2018-07-24T10:15:13.339Z,46.85
2018-07-24T10:17:42.786Z,45.56
2018-07-24T10:20:12.595Z,46.05
2018-07-24T10:22:42.051Z,45.99
2018-07-24T10:25:11.722Z,46.26
2018-07-24T10:27:41.401Z,45.85
2018-07-24T10:30:10.656Z,44.57
2018-07-24T10:32:39.974Z,44.95
2018-07-24T10:35:09.398Z,44.35
2018-07-24T10:37:38.879Z,43.45
2018-07-24T10:40:08.305Z,44.57
2018-07-24T10:42:37.658Z,45.02
2018-07-24T10:45:07.098Z,45.16
2018-07-24T10:47:36.557Z,45.76
2018-07-24T10:50:06.541Z,43.55
2018-07-24T10:52:35.935Z,43.85
2018-07-24T10:55:05.970Z,42.78
2018-07-24T10:57:35.825Z,43.29
2018-07-24T11:00:05.864Z,42.91
2018-07-24T11:02:35.506Z,42.64
2018-07-24T11:05:04.903Z,43.66
2018-07-24T11:07:34.385Z,43.52
2018-07-24T11:10:03.819Z,43.97
2018-07-24T11:12:33.429Z,42.58
2018-07-24T11:15:02.933Z,42.19
2018-07-24T11:17:32.417Z,42.76
2018-07-24T11:20:01.845Z,43.17
2018-07-24T11:22:31.265Z,42.48
2018-07-24T11:25:00.829Z,40.61
2018-07-24T11:27:30.198Z,41.42
2018-07-24T11:29:59.645Z,42.37
2018-07-24T11:32:29.520Z,41.03
2018-07-24T11:34:58.958Z,42.15
2018-07-24T11:37:29.317Z,41.57
2018-07-24T11:39:58.987Z,42.93
2018-07-24T11:42:28.417Z,40.61
2018-07-24T11:44:57.815Z,39.45
2018-07-24T11:47:27.168Z,38.66
2018-07-24T11:49:56.625Z,38.29
2018-07-24T11:52:26.035Z,38.89
2018-07-24T11:54:55.418Z,40.62
2018-07-24T11:57:24.845Z,38.78
2018-07-24T11:59:54.213Z,39.79
2018-07-24T12:02:23.652Z,39.07
2018-07-24T12:04:53.042Z,38.42
2018-07-24T12:07:22.443Z,38.19
2018-07-24T12:09:51.930Z,37.84
2018-07-24T12:12:21.378Z,37.37
2018-07-24T12:14:50.971Z,37.10
2018-07-24T12:17:20.306Z,36.59
2018-07-24T12:19:49.690Z,35.53
2018-07-24T12:22:19.080Z,36.19
2018-07-24T12:24:48.455Z,35.34
2018-07-24T12:27:17.890Z,35.35
2018-07-24T12:29:47.217Z,35.51
2018-07-24T12:32:16.581Z,33.51
2018-07-24T12:34:46.017Z,31.18
2018-07-24T12:37:15.400Z,29.23
2018-07-24T12:39:44.728Z,27.56
2018-07-24T12:42:14.196Z,26.53
2018-07-24T12:44:43.699Z,24.42
2018-07-24T12:47:13.374Z,24.15
2018-07-24T12:49:42.807Z,22.26
2018-07-24T12:52:12.210Z,21.42
2018-07-24T12:54:41.598Z,20.42
2018-07-24T12:57:11.034Z,20.50
2018-07-24T12:59:40.450Z,19.75
2018-07-24T13:02:09.909Z,20.95
2018-07-24T13:04:39.337Z,21.43
2018-07-24T13:07:08.891Z,21.76
2018-07-24T13:09:38.710Z,19.48
2018-07-24T13:12:08.258Z,20.31
2018-07-24T13:14:37.653Z,19.16
2018-07-24T13:17:07.953Z,20.52
2018-07-24T13:19:37.417Z,18.77
2018-07-24T13:22:06.917Z,20.28
2018-07-24T13:24:36.460Z,22.41
2018-07-24T13:27:05.758Z,19.23
2018-07-24T13:29:34.966Z,19.41
2018-07-24T13:32:04.429Z,20.27
2018-07-24T13:34:33.706Z,21.58
2018-07-24T13:37:03.061Z,20.34
2018-07-24T13:39:32.877Z,19.98
2018-07-24T13:42:02.372Z,20.80
2018-07-24T13:44:31.734Z,20.28
2018-07-24T13:47:01.198Z,18.17
2018-07-24T13:49:30.577Z,16.77
2018-07-24T13:51:59.979Z,17.98
2018-07-24T13:54:29.327Z,16.83
2018-07-24T13:56:58.673Z,15.91
2018-07-24T13:59:28.198Z,17.44
2018-07-24T14:01:57.931Z,19.74
2018-07-24T14:04:27.192Z,20.19
2018-07-24T14:06:56.598Z,23.14
2018-07-24T14:09:26.330Z,23.81
2018-07-24T14:11:55.726Z,25.16
2018-07-24T14:14:25.138Z,24.03
2018-07-24T14:16:54.608Z,24.72
2018-07-24T14:19:23.906Z,27.46
2018-07-24T14:21:53.251Z,28.09
2018-07-24T14:24:22.633Z,29.94
2018-07-24T14:26:52.005Z,29.84
2018-07-24T14:29:21.454Z,25.63
2018-07-24T14:31:50.817Z,24.89
2018-07-24T14:34:20.167Z,23.72
2018-07-24T14:36:49.579Z,26.00
2018-07-24T14:39:19.025Z,26.72
2018-07-24T14:41:48.415Z,30.45
2018-07-24T14:44:17.838Z,30.52
2018-07-24T14:46:47.398Z,29.07
2018-07-24T14:49:16.738Z,30.00
2018-07-24T14:51:46.126Z,27.56
2018-07-24T14:54:15.810Z,25.82
2018-07-24T14:56:45.190Z,26.01
2018-07-24T14:59:14.610Z,21.80
2018-07-24T15:01:44.029Z,22.74
2018-07-24T15:04:13.406Z,24.39
2018-07-24T15:06:42.769Z,25.69
2018-07-24T15:09:13.086Z,26.36
2018-07-24T15:11:42.514Z,22.85
2018-07-24T15:14:11.754Z,21.72
2018-07-24T15:16:41.126Z,21.83
2018-07-24T15:19:10.502Z,23.16
2018-07-24T15:21:40.215Z,20.09
2018-07-24T15:24:09.629Z,20.90
2018-07-24T15:26:39.115Z,22.25
2018-07-24T15:29:08.929Z,22.34
2018-07-24T15:31:38.304Z,21.31
2018-07-24T15:34:07.983Z,20.78
2018-07-24T15:36:37.303Z,21.31
2018-07-24T15:39:11.079Z,20.93
2018-07-24T15:41:41.088Z,22.94
2018-07-24T15:44:10.455Z,23.28
2018-07-24T15:46:39.723Z,26.40
2018-07-24T15:49:09.259Z,27.20
2018-07-24T15:51:38.634Z,24.31
2018-07-24T15:54:08.022Z,24.03
2018-07-24T15:56:37.572Z,23.50
2018-07-24T15:59:07.035Z,24.16
2018-07-24T16:01:36.442Z,23.87
2018-07-24T16:04:05.871Z,25.95
2018-07-24T16:06:35.199Z,25.20
2018-07-24T16:09:06.646Z,21.83
2018-07-24T16:11:35.808Z,23.11
2018-07-24T16:14:05.320Z,24.02
2018-07-24T16:16:34.693Z,23.17
2018-07-24T16:19:04.367Z,23.60
2018-07-24T16:21:33.732Z,23.13
2018-07-24T16:24:03.118Z,20.86
2018-07-24T16:26:32.529Z,19.31
2018-07-24T16:29:01.610Z,22.51
2018-07-24T16:31:30.998Z,22.18
2018-07-24T16:34:00.473Z,23.08
2018-07-24T16:36:29.869Z,24.34
2018-07-24T16:38:59.277Z,23.48
2018-07-24T16:41:28.638Z,23.90
2018-07-24T16:43:58.160Z,23.38
2018-07-24T16:46:27.441Z,24.93
2018-07-24T16:48:56.833Z,24.03
2018-07-24T16:51:26.417Z,24.90
2018-07-24T16:53:55.862Z,26.62
2018-07-24T16:56:25.422Z,24.10
2018-07-24T16:58:54.945Z,24.76
2018-07-24T17:01:24.439Z,24.42
2018-07-24T17:03:54.247Z,23.22
2018-07-24T17:06:23.594Z,25.32
2018-07-24T17:08:53.135Z,24.85
2018-07-24T17:11:22.678Z,24.19
2018-07-24T17:13:52.146Z,24.40
2018-07-24T17:16:21.560Z,23.33
2018-07-24T17:18:51.124Z,23.23
2018-07-24T17:21:20.442Z,26.11
2018-07-24T17:23:49.841Z,25.58
2018-07-24T17:26:19.436Z,24.66
2018-07-24T17:28:48.745Z,28.16
2018-07-24T17:31:18.110Z,29.27
2018-07-24T17:33:48.249Z,27.76
2018-07-24T17:36:17.685Z,28.13
2018-07-24T17:38:47.445Z,30.19
2018-07-24T17:41:17.035Z,29.70
2018-07-24T17:43:46.522Z,28.50
2018-07-24T17:46:16.526Z,30.87
2018-07-24T17:48:46.181Z,32.24
2018-07-24T17:51:15.627Z,33.05
2018-07-24T17:53:44.991Z,33.79
2018-07-24T17:56:14.476Z,35.21
2018-07-24T17:58:44.047Z,36.56
2018-07-24T18:01:13.502Z,38.20
2018-07-24T18:03:42.863Z,39.80
2018-07-24T18:06:12.326Z,40.51
2018-07-24T18:08:42.263Z,40.63
2018-07-24T18:11:11.607Z,40.76
2018-07-24T18:13:41.257Z,41.28
2018-07-24T18:16:10.722Z,41.51
2018-07-24T18:18:40.106Z,43.11
2018-07-24T18:21:09.878Z,42.77
2018-07-24T18:23:40.021Z,43.78
2018-07-24T18:26:09.450Z,43.47
2018-07-24T18:28:38.580Z,44.58
2018-07-24T18:31:08.047Z,45.38
2018-07-24T18:33:37.505Z,44.54
2018-07-24T18:36:06.998Z,45.66
2018-07-24T18:38:36.426Z,46.13
2018-07-24T18:41:05.890Z,45.64
2018-07-24T18:43:35.237Z,46.63
2018-07-24T18:46:04.629Z,46.63
2018-07-24T18:48:34.008Z,47.34
2018-07-24T18:51:03.427Z,46.88
2018-07-24T18:53:32.994Z,46.84
2018-07-24T18:56:02.758Z,47.82
2018-07-24T18:58:32.251Z,48.08
2018-07-24T19:01:02.186Z,48.18
2018-07-24T19:03:31.589Z,48.01
2018-07-24T19:06:01.629Z,48.76
2018-07-24T19:08:31.035Z,48.68
2018-07-24T19:11:00.449Z,49.15
2018-07-24T19:13:29.793Z,49.33
2018-07-24T19:15:59.542Z,48.64
2018-07-24T19:18:29.233Z,48.73
2018-07-24T19:20:58.839Z,49.38
2018-07-24T19:23:28.205Z,50.48
2018-07-24T19:25:57.767Z,49.87
2018-07-24T19:28:27.073Z,50.77
2018-07-24T19:30:56.446Z,50.84
2018-07-24T19:33:25.855Z,50.64
2018-07-24T19:35:55.254Z,51.01
2018-07-24T19:38:24.640Z,51.13
2018-07-24T19:40:54.042Z,50.89
2018-07-24T19:43:23.459Z,51.55
2018-07-24T19:45:52.816Z,51.89
2018-07-24T19:48:22.311Z,52.16
2018-07-24T19:50:51.786Z,53.27
2018-07-24T19:53:21.137Z,52.31
2018-07-24T19:55:50.597Z,52.18
2018-07-24T19:58:19.989Z,52.85
2018-07-24T20:00:49.648Z,52.74
2018-07-24T20:03:19.008Z,53.14
2018-07-24T20:05:48.494Z,53.22
2018-07-24T20:08:18.105Z,54.17
2018-07-24T20:10:47.458Z,54.05
2018-07-24T20:13:17.066Z,54.35
2018-07-24T20:15:46.413Z,54.70
2018-07-24T20:18:15.806Z,55.11
2018-07-24T20:20:45.239Z,54.72
2018-07-24T20:23:14.631Z,55.79
2018-07-24T20:25:44.082Z,56.01
2018-07-24T20:28:13.413Z,56.06
2018-07-24T20:30:42.959Z,55.27
2018-07-24T20:33:12.374Z,55.41
2018-07-24T20:35:41.924Z,55.81
2018-07-24T20:38:11.249Z,56.68
2018-07-24T20:40:40.617Z,55.59
2018-07-24T20:43:10.089Z,56.32
2018-07-24T20:45:39.483Z,56.42
2018-07-24T20:48:08.988Z,55.85
2018-07-24T20:50:38.461Z,56.80
2018-07-24T20:53:07.918Z,56.62
2018-07-24T20:55:37.429Z,56.30
2018-07-24T20:58:06.891Z,57.54
2018-07-24T21:00:39.581Z,56.70
2018-07-24T21:03:08.749Z,57.48
2018-07-24T21:05:38.308Z,57.36
2018-07-24T21:08:08.131Z,57.30
2018-07-24T21:10:37.870Z,57.51
2018-07-24T21:13:08.780Z,57.50
2018-07-24T21:15:39.369Z,58.19
2018-07-24T21:18:08.817Z,57.88
2018-07-24T21:20:38.366Z,58.09
2018-07-24T21:23:12.143Z,58.53
2018-07-24T21:25:41.597Z,58.86
2018-07-24T21:28:11.567Z,58.94
2018-07-24T21:30:40.924Z,58.85
2018-07-24T21:33:10.354Z,58.98
2018-07-24T21:35:39.759Z,58.74
2018-07-24T21:38:09.253Z,59.86
2018-07-24T21:40:38.898Z,60.04
2018-07-24T21:43:08.343Z,59.85
2018-07-24T21:45:37.892Z,59.17
2018-07-24T21:48:07.297Z,59.74
2018-07-24T21:50:36.812Z,59.14
2018-07-24T21:53:06.089Z,59.72
2018-07-24T21:55:35.454Z,59.89
2018-07-24T21:58:05.190Z,60.09
2018-07-24T22:00:37.440Z,60.18
2018-07-24T22:03:09.064Z,59.56
2018-07-24T22:05:38.454Z,59.62
2018-07-24T22:08:07.894Z,60.79
2018-07-24T22:10:37.613Z,60.09
2018-07-24T22:13:07.303Z,60.54
2018-07-24T22:15:37.005Z,60.41
2018-07-24T22:18:06.536Z,60.89
2018-07-24T22:20:36.577Z,61.31
2018-07-24T22:23:06.642Z,61.40
2018-07-24T22:25:35.942Z,60.19
2018-07-24T22:28:05.164Z,60.37
2018-07-24T22:30:35.162Z,61.08
2018-07-24T22:33:04.661Z,61.67
2018-07-24T22:35:34.120Z,61.65
2018-07-24T22:38:03.522Z,61.87
2018-07-24T22:40:32.898Z,62.29
2018-07-24T22:43:02.339Z,62.50
2018-07-24T22:45:31.713Z,62.48
2018-07-24T22:48:01.146Z,62.56
2018-07-24T22:50:30.545Z,62.70
2018-07-24T22:52:59.863Z,62.71
2018-07-24T22:55:29.256Z,62.99
2018-07-24T22:57:58.694Z,63.48
2018-07-24T23:00:28.062Z,63.83
2018-07-24T23:02:57.186Z,63.87
2018-07-24T23:05:26.633Z,64.35
2018-07-24T23:07:56.066Z,64.54
2018-07-24T23:10:30.745Z,65.05
2018-07-24T23:13:00.657Z,65.83
2018-07-24T23:15:30.223Z,65.89
2018-07-24T23:17:59.777Z,66.98
2018-07-24T23:20:29.499Z,67.20
2018-07-24T23:22:58.883Z,67.92
2018-07-24T23:25:28.338Z,68.48
2018-07-24T23:27:57.763Z,67.46
2018-07-24T23:30:27.125Z,67.66
2018-07-24T23:32:56.554Z,67.85
2018-07-24T23:35:25.938Z,67.87
2018-07-24T23:37:55.530Z,68.64
2018-07-24T23:40:25.805Z,69.60
2018-07-24T23:42:55.457Z,70.63
2018-07-24T23:45:24.651Z,70.31
2018-07-24T23:47:53.857Z,69.91
2018-07-24T23:50:23.206Z,69.71
2018-07-24T23:52:52.514Z,69.21
2018-07-24T23:55:22.134Z,69.82
2018-07-24T23:57:51.655Z,69.32
